createdAt,value
2023-04-10T00:00:39.534Z,83.05
2023-04-10T00:03:07.445Z,83.05
2023-04-10T00:05:35.027Z,83.99
2023-04-10T00:08:03.523Z,82.79
2023-04-10T00:10:32.594Z,83.45
2023-04-10T00:13:01.149Z,84.02
2023-04-10T00:15:29.031Z,84.22
2023-04-10T00:17:56.634Z,84.56
2023-04-10T00:20:26.492Z,84.49
2023-04-10T00:22:54.094Z,84.29
2023-04-10T00:25:23.276Z,84.48
2023-04-10T00:27:50.813Z,84.74
2023-04-10T00:30:18.202Z,85.48
2023-04-10T00:32:46.216Z,84.74
2023-04-10T00:35:13.912Z,83.81
2023-04-10T00:37:41.180Z,83.50
2023-04-10T00:40:09.181Z,83.70
2023-04-10T00:42:36.714Z,82.38
2023-04-10T00:45:04.375Z,82.99
2023-04-10T00:47:32.384Z,84.41
2023-04-10T00:50:00.499Z,84.53
2023-04-10T00:52:27.917Z,83.45
2023-04-10T00:54:55.900Z,84.14
2023-04-10T00:57:23.258Z,84.37
2023-04-10T00:59:52.301Z,84.46
2023-04-10T01:02:21.110Z,83.99
2023-04-10T01:04:48.789Z,84.55
2023-04-10T01:07:25.001Z,85.00
2023-04-10T01:10:05.166Z,87.36
2023-04-10T01:12:47.887Z,87.39
2023-04-10T01:15:21.280Z,86.48
2023-04-10T01:18:03.647Z,85.90
2023-04-10T01:20:35.119Z,87.39
2023-04-10T01:23:19.671Z,87.97
2023-04-10T01:26:07.547Z,88.28
2023-04-10T01:29:00.720Z,87.54
2023-04-10T01:31:47.340Z,87.89
2023-04-10T01:34:22.338Z,86.83
2023-04-10T01:36:55.549Z,87.37
2023-04-10T01:39:24.522Z,88.23
2023-04-10T01:41:54.562Z,88.06
2023-04-10T01:44:27.441Z,88.43
2023-04-10T01:46:57.807Z,87.59
2023-04-10T01:49:28.684Z,87.97
2023-04-10T01:52:02.022Z,87.09
2023-04-10T01:54:32.758Z,87.55
2023-04-10T01:57:02.450Z,88.53
2023-04-10T01:59:31.588Z,88.51
2023-04-10T02:02:01.133Z,88.91
2023-04-10T02:04:29.264Z,88.19
2023-04-10T02:07:04.932Z,87.41
2023-04-10T02:10:01.226Z,88.33
2023-04-10T02:12:33.298Z,89.69
2023-04-10T02:15:03.070Z,89.69
2023-04-10T02:17:31.632Z,90.36
2023-04-10T02:20:01.086Z,90.37
2023-04-10T02:22:28.734Z,91.33
2023-04-10T02:24:57.656Z,90.59
2023-04-10T02:27:30.481Z,90.10
2023-04-10T02:29:59.780Z,89.54
2023-04-10T02:32:27.695Z,89.13
2023-04-10T02:34:55.459Z,89.29
2023-04-10T02:37:23.640Z,89.40
2023-04-10T02:39:51.828Z,89.01
2023-04-10T02:42:20.445Z,89.48
2023-04-10T02:44:48.808Z,89.53
2023-04-10T02:47:17.337Z,90.16
2023-04-10T02:49:45.051Z,90.26
2023-04-10T02:52:13.187Z,89.29
2023-04-10T02:54:41.122Z,88.75
2023-04-10T02:57:08.609Z,88.40
2023-04-10T02:59:36.249Z,89.29
2023-04-10T03:02:05.859Z,89.91
2023-04-10T03:04:34.202Z,89.49
2023-04-10T03:07:02.003Z,88.96
2023-04-10T03:09:29.687Z,88.84
2023-04-10T03:11:57.046Z,88.45
2023-04-10T03:14:24.666Z,88.83
2023-04-10T03:16:52.381Z,88.95
2023-04-10T03:19:19.693Z,89.39
2023-04-10T03:21:47.449Z,88.96
2023-04-10T03:24:15.086Z,88.72
2023-04-10T03:26:43.868Z,88.01
2023-04-10T03:29:11.242Z,89.07
2023-04-10T03:31:40.004Z,89.26
2023-04-10T03:34:07.454Z,88.97
2023-04-10T03:36:34.857Z,89.07
2023-04-10T03:39:02.462Z,89.19
2023-04-10T03:41:31.234Z,89.01
2023-04-10T03:43:58.546Z,88.38
2023-04-10T03:46:26.352Z,88.96
2023-04-10T03:49:16.256Z,88.78
2023-04-10T03:51:47.598Z,89.12
2023-04-10T03:54:14.991Z,88.77
2023-04-10T03:56:42.968Z,88.95
2023-04-10T03:59:11.319Z,89.11
2023-04-10T04:01:39.681Z,88.50
2023-04-10T04:04:07.847Z,88.02
2023-04-10T04:06:41.533Z,87.90
2023-04-10T04:09:09.403Z,87.22
2023-04-10T04:11:38.714Z,87.51
2023-04-10T04:14:06.660Z,86.89
2023-04-10T04:16:36.305Z,86.41
2023-04-10T04:19:06.058Z,86.37
2023-04-10T04:21:34.024Z,87.05
2023-04-10T04:24:01.888Z,86.87
2023-04-10T04:26:30.848Z,86.41
2023-04-10T04:29:00.159Z,87.00
2023-04-10T04:31:32.840Z,87.30
2023-04-10T04:34:01.827Z,86.56
2023-04-10T04:36:29.844Z,86.68
2023-04-10T04:38:57.498Z,87.41
2023-04-10T04:41:25.521Z,87.01
2023-04-10T04:43:56.039Z,87.44
2023-04-10T04:46:24.148Z,87.25
2023-04-10T04:48:51.829Z,87.69
2023-04-10T04:51:19.637Z,86.98
2023-04-10T04:53:47.231Z,85.83
2023-04-10T04:56:14.795Z,85.68
2023-04-10T04:58:43.026Z,86.09
2023-04-10T05:01:10.623Z,85.89
2023-04-10T05:03:42.801Z,85.85
2023-04-10T05:06:14.537Z,86.70
2023-04-10T05:08:47.226Z,85.76
2023-04-10T05:11:18.076Z,85.41
2023-04-10T05:13:52.530Z,83.54
2023-04-10T05:16:23.744Z,84.80
2023-04-10T05:18:51.936Z,85.51
2023-04-10T05:21:19.977Z,85.89
2023-04-10T05:23:48.032Z,86.91
2023-04-10T05:26:15.678Z,86.91
2023-04-10T05:28:44.413Z,88.61
2023-04-10T05:31:14.344Z,89.10
2023-04-10T05:36:18.958Z,88.84
2023-04-10T05:38:46.748Z,87.82
2023-04-10T05:41:14.330Z,88.05
2023-04-10T05:43:42.140Z,89.27
2023-04-10T05:46:09.666Z,88.51
2023-04-10T05:48:37.882Z,88.27
2023-04-10T05:51:06.209Z,88.16
2023-04-10T05:53:34.607Z,87.01
2023-04-10T05:56:09.242Z,86.51
2023-04-10T05:58:37.735Z,86.27
2023-04-10T06:01:07.815Z,88.22
2023-04-10T06:03:38.682Z,87.21
2023-04-10T06:06:08.062Z,84.61
2023-04-10T06:08:35.870Z,85.12
2023-04-10T06:11:14.209Z,84.70
2023-04-10T06:13:50.456Z,84.85
2023-04-10T06:16:18.032Z,84.87
2023-04-10T06:18:46.754Z,86.13
2023-04-10T06:21:14.807Z,84.67
2023-04-10T06:23:42.408Z,85.21
2023-04-10T06:26:10.801Z,85.55
2023-04-10T06:28:38.750Z,85.09
2023-04-10T06:31:07.555Z,84.14
2023-04-10T06:33:37.247Z,84.55
2023-04-10T06:36:07.057Z,83.16
2023-04-10T06:38:38.113Z,84.54
2023-04-10T06:41:07.351Z,85.03
2023-04-10T06:43:40.085Z,84.83
2023-04-10T06:46:08.010Z,83.44
2023-04-10T06:48:36.498Z,83.33
2023-04-10T06:51:07.944Z,84.33
2023-04-10T06:53:35.988Z,83.55
2023-04-10T06:56:03.996Z,83.70
2023-04-10T06:58:33.767Z,84.43
2023-04-10T07:01:04.754Z,84.61
2023-04-10T07:03:32.853Z,85.10
2023-04-10T07:06:03.469Z,84.35
2023-04-10T07:08:31.093Z,85.35
2023-04-10T07:10:59.010Z,85.96
2023-04-10T07:13:27.660Z,86.26
2023-04-10T07:15:59.315Z,84.33
2023-04-10T07:18:28.377Z,83.55
2023-04-10T07:20:55.863Z,81.84
2023-04-10T07:23:24.018Z,81.63
2023-04-10T07:25:53.029Z,81.71
2023-04-10T07:28:21.077Z,79.54
2023-04-10T07:30:48.580Z,80.14
2023-04-10T07:33:17.109Z,78.44
2023-04-10T07:35:44.915Z,79.02
2023-04-10T07:38:13.687Z,76.17
2023-04-10T07:40:44.116Z,75.50
2023-04-10T07:43:13.822Z,76.23
2023-04-10T07:45:42.189Z,75.95
2023-04-10T07:48:10.247Z,76.29
2023-04-10T07:50:37.739Z,75.79
2023-04-10T07:53:08.298Z,74.56
2023-04-10T07:55:49.022Z,75.04
2023-04-10T07:58:16.870Z,74.57
2023-04-10T08:00:45.374Z,74.71
2023-04-10T08:03:16.344Z,76.84
2023-04-10T08:05:43.981Z,75.25
2023-04-10T08:08:12.750Z,75.13
2023-04-10T08:10:41.498Z,74.52
2023-04-10T08:13:09.340Z,74.76
2023-04-10T08:15:36.748Z,71.44
2023-04-10T08:18:04.520Z,72.87
2023-04-10T08:20:37.113Z,72.32
2023-04-10T08:23:19.180Z,74.33
2023-04-10T08:25:47.541Z,72.43
2023-04-10T08:28:15.564Z,73.80
2023-04-10T08:30:42.923Z,73.29
2023-04-10T08:33:10.651Z,72.71
2023-04-10T08:35:39.287Z,73.11
2023-04-10T08:38:14.170Z,73.11
2023-04-10T08:40:44.849Z,73.70
2023-04-10T08:43:12.831Z,70.80
2023-04-10T08:45:44.351Z,70.46
2023-04-10T08:48:14.780Z,72.15
2023-04-10T08:50:45.893Z,71.52
2023-04-10T08:53:16.235Z,73.36
2023-04-10T08:55:45.970Z,72.11
2023-04-10T08:58:14.151Z,71.43
2023-04-10T09:00:41.571Z,69.64
2023-04-10T09:03:12.070Z,69.76
2023-04-10T09:05:40.027Z,70.34
2023-04-10T09:08:09.169Z,69.78
2023-04-10T09:10:36.719Z,69.34
2023-04-10T09:13:04.912Z,68.68
2023-04-10T09:15:56.681Z,69.71
2023-04-10T09:18:42.377Z,69.08
2023-04-10T09:21:16.580Z,71.08
2023-04-10T09:23:45.806Z,66.59
2023-04-10T09:26:42.631Z,67.72
2023-04-10T09:29:12.538Z,65.88
2023-04-10T09:31:40.495Z,65.36
2023-04-10T09:34:20.929Z,67.11
2023-04-10T09:36:57.489Z,64.90
2023-04-10T09:39:35.867Z,64.32
2023-04-10T09:42:04.738Z,66.63
2023-04-10T09:44:35.135Z,65.00
2023-04-10T09:47:15.119Z,67.27
2023-04-10T09:49:48.550Z,67.82
2023-04-10T09:52:23.165Z,65.50
2023-04-10T09:54:51.634Z,64.85
2023-04-10T09:57:20.458Z,63.04
2023-04-10T09:59:52.679Z,64.17
2023-04-10T10:02:23.503Z,63.94
2023-04-10T10:04:52.959Z,60.36
2023-04-10T10:07:24.415Z,58.97
2023-04-10T10:09:54.054Z,60.19
2023-04-10T10:12:34.528Z,58.38
2023-04-10T10:15:25.976Z,55.94
2023-04-10T10:18:22.865Z,55.73
2023-04-10T10:20:51.307Z,57.69
2023-04-10T10:23:20.208Z,59.34
2023-04-10T10:25:49.529Z,59.04
2023-04-10T10:28:19.270Z,58.49
2023-04-10T10:30:49.172Z,58.38
2023-04-10T10:33:18.176Z,58.96
2023-04-10T10:35:46.706Z,59.15
2023-04-10T10:38:14.647Z,55.26
2023-04-10T10:40:55.027Z,55.03
2023-04-10T10:43:42.977Z,56.77
2023-04-10T10:46:22.510Z,54.38
2023-04-10T10:49:00.724Z,55.41
2023-04-10T10:51:45.727Z,55.86
2023-04-10T10:54:40.364Z,54.49
2023-04-10T10:57:48.459Z,56.83
2023-04-10T11:00:23.344Z,54.08
2023-04-10T11:03:10.908Z,54.35
2023-04-10T11:05:59.101Z,55.42
2023-04-10T11:08:44.582Z,56.21
2023-04-10T11:11:17.533Z,54.11
2023-04-10T11:13:57.150Z,55.70
2023-04-10T11:16:44.048Z,53.90
2023-04-10T11:19:16.277Z,54.90
2023-04-10T11:22:05.643Z,55.23
2023-04-10T11:25:00.726Z,55.51
2023-04-10T11:27:46.516Z,54.62
2023-04-10T11:30:32.347Z,56.71
2023-04-10T11:33:01.038Z,57.65
2023-04-10T11:35:29.211Z,55.17
2023-04-10T11:38:09.636Z,59.01
2023-04-10T11:40:53.669Z,52.89
2023-04-10T11:43:21.263Z,51.41
2023-04-10T11:45:49.274Z,52.57
2023-04-10T11:48:17.614Z,53.68
2023-04-10T11:50:45.113Z,52.27
2023-04-10T11:53:20.309Z,55.45
2023-04-10T11:55:47.871Z,57.37
2023-04-10T11:58:26.893Z,57.87
2023-04-10T12:00:58.877Z,57.17
2023-04-10T12:03:37.356Z,55.53
2023-04-10T12:06:08.436Z,57.05
2023-04-10T12:08:45.234Z,53.66
2023-04-10T12:11:13.323Z,53.97
2023-04-10T12:13:41.008Z,52.76
2023-04-10T12:16:09.978Z,49.91
2023-04-10T12:18:38.052Z,50.97
2023-04-10T12:21:08.429Z,48.28
2023-04-10T12:23:38.993Z,49.92
2023-04-10T12:26:09.681Z,54.74
2023-04-10T12:28:38.416Z,54.31
2023-04-10T12:31:06.469Z,55.69
2023-04-10T12:33:34.295Z,55.46
2023-04-10T12:36:01.910Z,54.11
2023-04-10T12:38:43.568Z,56.00
2023-04-10T12:41:12.485Z,55.05
2023-04-10T12:43:42.893Z,55.02
2023-04-10T12:46:24.058Z,54.70
2023-04-10T12:48:51.517Z,56.45
2023-04-10T12:51:19.350Z,56.53
2023-04-10T12:53:46.950Z,56.58
2023-04-10T12:56:14.904Z,57.70
2023-04-10T12:58:42.854Z,58.20
2023-04-10T13:01:10.390Z,59.57
2023-04-10T13:03:38.528Z,59.89
2023-04-10T13:06:07.623Z,60.33
2023-04-10T13:08:35.780Z,62.43
2023-04-10T13:11:03.804Z,63.09
2023-04-10T13:13:33.028Z,64.21
2023-04-10T13:16:01.401Z,66.24
2023-04-10T13:18:29.012Z,66.71
2023-04-10T13:20:56.730Z,67.90
2023-04-10T13:23:24.105Z,68.18
2023-04-10T13:25:51.494Z,67.26
2023-04-10T13:28:20.310Z,67.17
2023-04-10T13:30:47.677Z,67.46
2023-04-10T13:33:15.313Z,66.71
2023-04-10T13:35:43.099Z,70.26
2023-04-10T13:38:11.961Z,66.93
2023-04-10T13:40:39.410Z,67.80
2023-04-10T13:43:07.116Z,66.40
2023-04-10T13:45:35.071Z,63.13
2023-04-10T13:48:02.736Z,65.97
2023-04-10T13:50:30.518Z,64.34
2023-04-10T13:52:57.890Z,65.29
2023-04-10T13:55:25.642Z,65.60
2023-04-10T13:57:53.422Z,64.77
2023-04-10T14:00:20.931Z,65.56
2023-04-10T14:02:48.981Z,65.94
2023-04-10T14:05:16.723Z,65.78
2023-04-10T14:07:44.087Z,65.02
2023-04-10T14:10:11.899Z,66.75
2023-04-10T14:12:39.158Z,63.54
2023-04-10T14:15:07.072Z,63.29
2023-04-10T14:17:35.034Z,64.28
2023-04-10T14:20:02.568Z,65.83
2023-04-10T14:22:31.892Z,63.54
2023-04-10T14:25:11.638Z,66.25
2023-04-10T14:27:40.136Z,66.23
2023-04-10T14:30:08.808Z,64.84
2023-04-10T14:32:36.397Z,66.36
2023-04-10T14:35:03.927Z,66.20
2023-04-10T14:37:32.458Z,65.95
2023-04-10T14:39:59.813Z,67.55
2023-04-10T14:42:27.913Z,65.67
2023-04-10T14:44:55.572Z,65.66
2023-04-10T14:47:23.963Z,65.65
2023-04-10T14:49:51.409Z,65.22
2023-04-10T14:52:19.156Z,66.28
2023-04-10T14:54:46.463Z,64.63
2023-04-10T14:57:15.835Z,65.00
2023-04-10T14:59:44.232Z,63.82
2023-04-10T15:02:11.558Z,64.68
2023-04-10T15:04:38.994Z,63.57
2023-04-10T15:07:06.725Z,64.05
2023-04-10T15:09:34.054Z,63.59
2023-04-10T15:12:02.090Z,64.41
2023-04-10T15:14:29.767Z,62.07
2023-04-10T15:16:57.291Z,59.19
2023-04-10T15:19:24.769Z,59.81
2023-04-10T15:21:52.473Z,56.55
2023-04-10T15:24:19.791Z,53.37
2023-04-10T15:26:47.322Z,53.14
2023-04-10T15:29:15.162Z,53.18
2023-04-10T15:31:42.593Z,54.21
2023-04-10T15:34:10.389Z,54.53
2023-04-10T15:36:38.042Z,56.53
2023-04-10T15:39:05.389Z,56.96
2023-04-10T15:41:33.328Z,58.70
2023-04-10T15:44:01.192Z,61.27
2023-04-10T15:46:32.745Z,61.50
2023-04-10T15:49:01.652Z,62.72
2023-04-10T15:51:29.018Z,63.32
2023-04-10T15:53:56.597Z,65.17
2023-04-10T15:56:27.335Z,65.45
2023-04-10T15:58:55.269Z,65.30
2023-04-10T16:01:22.714Z,67.35
2023-04-10T16:03:50.475Z,69.22
2023-04-10T16:06:18.105Z,69.64
2023-04-10T16:08:45.585Z,73.28
2023-04-10T16:11:13.286Z,73.62
2023-04-10T16:13:44.372Z,74.12
2023-04-10T16:16:16.542Z,71.52
2023-04-10T16:18:45.161Z,76.40
2023-04-10T16:21:14.464Z,79.04
2023-04-10T16:23:41.983Z,79.52
2023-04-10T16:26:09.301Z,81.70
2023-04-10T16:28:37.017Z,82.94
2023-04-10T16:31:04.654Z,83.37
2023-04-10T16:33:32.543Z,85.45
2023-04-10T16:36:03.283Z,82.99
2023-04-10T16:38:31.595Z,85.26
2023-04-10T16:41:02.462Z,85.14
2023-04-10T16:43:30.199Z,85.70
2023-04-10T16:45:59.132Z,86.16
2023-04-10T16:48:26.887Z,88.21
2023-04-10T16:50:55.840Z,86.98
2023-04-10T16:53:23.150Z,90.62
2023-04-10T16:55:58.298Z,91.51
2023-04-10T16:58:26.499Z,93.15
2023-04-10T17:00:53.968Z,94.80
2023-04-10T17:03:21.559Z,95.18
2023-04-10T17:05:49.270Z,96.24
2023-04-10T17:08:16.652Z,96.54
2023-04-10T17:10:44.032Z,97.87
2023-04-10T17:13:11.798Z,96.16
2023-04-10T17:15:39.102Z,94.19
2023-04-10T17:18:06.463Z,93.70
2023-04-10T17:20:37.536Z,92.23
2023-04-10T17:23:04.947Z,92.70
2023-04-10T17:25:32.383Z,92.72
2023-04-10T17:28:00.067Z,92.88
2023-04-10T17:30:27.802Z,92.97
2023-04-10T17:32:55.070Z,94.65
2023-04-10T17:35:23.509Z,93.23
2023-04-10T17:37:53.633Z,93.52
2023-04-10T17:40:21.386Z,92.46
2023-04-10T17:42:49.801Z,91.12
2023-04-10T17:45:20.501Z,91.33
2023-04-10T17:47:48.039Z,89.40
2023-04-10T17:50:15.844Z,89.67
2023-04-10T17:52:44.641Z,90.26
2023-04-10T17:55:12.072Z,89.47
2023-04-10T17:57:39.705Z,91.73
2023-04-10T18:00:09.010Z,93.88
2023-04-10T18:02:36.979Z,90.72
2023-04-10T18:05:06.650Z,90.41
2023-04-10T18:07:35.810Z,91.06
2023-04-10T18:10:04.571Z,92.81
2023-04-10T18:12:32.808Z,95.45
2023-04-10T18:15:00.916Z,93.59
2023-04-10T18:17:29.121Z,91.50
2023-04-10T18:19:57.703Z,91.62
2023-04-10T18:22:25.467Z,92.54
2023-04-10T18:24:53.795Z,93.92
2023-04-10T18:27:21.517Z,93.71
2023-04-10T18:29:49.057Z,94.84
2023-04-10T18:32:16.690Z,95.42
2023-04-10T18:34:43.948Z,94.07
2023-04-10T18:37:11.362Z,93.66
2023-04-10T18:39:39.195Z,94.90
2023-04-10T18:42:10.758Z,95.28
2023-04-10T18:44:38.737Z,96.04
2023-04-10T18:47:06.161Z,96.25
2023-04-10T18:49:33.603Z,96.64
2023-04-10T18:52:01.407Z,95.31
2023-04-10T18:54:30.021Z,96.36
2023-04-10T18:56:57.458Z,95.09
2023-04-10T18:59:27.853Z,90.54
2023-04-10T19:01:55.332Z,91.61
2023-04-10T19:04:23.082Z,93.40
2023-04-10T19:06:51.550Z,92.87
2023-04-10T19:09:18.945Z,96.89
2023-04-10T19:11:46.360Z,98.78
2023-04-10T19:14:14.035Z,99.64
2023-04-10T19:16:41.510Z,97.59
2023-04-10T19:19:08.848Z,99.02
2023-04-10T19:21:36.599Z,99.20
2023-04-10T19:24:04.046Z,98.84
2023-04-10T19:26:31.523Z,98.28
2023-04-10T19:28:59.682Z,97.84
2023-04-10T19:31:29.957Z,97.14
2023-04-10T19:33:57.438Z,96.41
2023-04-10T19:36:25.291Z,96.63
2023-04-10T19:38:52.812Z,96.97
2023-04-10T19:41:20.182Z,97.12
2023-04-10T19:43:47.889Z,96.60
2023-04-10T19:46:19.388Z,96.99
2023-04-10T19:48:47.520Z,94.73
2023-04-10T19:51:15.529Z,95.29
2023-04-10T19:53:42.928Z,96.82
2023-04-10T19:56:10.384Z,96.90
2023-04-10T19:58:41.019Z,97.38
2023-04-10T20:01:09.442Z,97.24
2023-04-10T20:03:38.740Z,96.16
2023-04-10T20:06:10.499Z,96.06
2023-04-10T20:08:38.229Z,95.09
2023-04-10T20:11:06.751Z,94.36
2023-04-10T20:13:35.047Z,95.08
2023-04-10T20:16:02.997Z,94.95
2023-04-10T20:18:32.248Z,93.72
2023-04-10T20:20:59.944Z,93.75
2023-04-10T20:23:27.658Z,96.71
2023-04-10T20:25:55.007Z,98.40
2023-04-10T20:28:22.332Z,98.82
2023-04-10T20:30:50.002Z,98.37
2023-04-10T20:33:17.397Z,97.88
2023-04-10T20:35:44.770Z,97.61
2023-04-10T20:38:12.552Z,98.05
2023-04-10T20:40:39.911Z,98.36
2023-04-10T20:43:11.588Z,100.00
2023-04-10T20:45:39.874Z,100.00
2023-04-10T20:48:09.170Z,100.00
2023-04-10T20:50:39.993Z,100.00
2023-04-10T20:53:07.915Z,100.00
2023-04-10T20:55:38.824Z,100.00
2023-04-10T20:58:06.661Z,100.00
2023-04-10T21:00:34.661Z,99.31
2023-04-10T21:03:01.978Z,98.36
2023-04-10T21:05:29.432Z,98.79
2023-04-10T21:07:57.104Z,98.84
2023-04-10T21:10:24.518Z,98.18
2023-04-10T21:12:51.825Z,98.76
2023-04-10T21:15:19.521Z,99.01
2023-04-10T21:17:47.966Z,100.00
2023-04-10T21:20:15.586Z,99.33
2023-04-10T21:22:43.111Z,98.97
2023-04-10T21:25:11.390Z,99.64
2023-04-10T21:27:38.573Z,97.66
2023-04-10T21:30:06.718Z,98.81
2023-04-10T21:32:34.087Z,99.14
2023-04-10T21:35:01.493Z,99.10
2023-04-10T21:37:29.112Z,99.23
2023-04-10T21:39:56.458Z,99.06
2023-04-10T21:42:23.834Z,99.27
2023-04-10T21:44:51.480Z,98.66
2023-04-10T21:47:18.708Z,96.71
2023-04-10T21:49:46.012Z,96.81
2023-04-10T21:52:13.552Z,97.85
2023-04-10T21:54:40.782Z,99.53
2023-04-10T21:57:08.273Z,100.00
2023-04-10T21:59:36.928Z,99.78
2023-04-10T22:02:04.211Z,100.00
2023-04-10T22:04:33.054Z,99.50
2023-04-10T22:07:00.420Z,100.00
2023-04-10T22:09:27.641Z,100.00
2023-04-10T22:11:55.514Z,100.00
2023-04-10T22:14:24.817Z,99.51
2023-04-10T22:16:51.916Z,98.69
2023-04-10T22:19:19.673Z,97.45
2023-04-10T22:21:46.994Z,98.70
2023-04-10T22:24:14.335Z,99.30
2023-04-10T22:26:42.369Z,99.12
2023-04-10T22:29:09.846Z,99.03
2023-04-10T22:31:37.117Z,98.42
2023-04-10T22:34:04.623Z,98.66
2023-04-10T22:36:35.054Z,99.76
2023-04-10T22:39:03.052Z,99.99
2023-04-10T22:41:31.467Z,100.00
2023-04-10T22:43:59.108Z,100.00
2023-04-10T22:46:26.395Z,100.00
2023-04-10T22:48:55.141Z,99.85
2023-04-10T22:51:22.647Z,99.18
2023-04-10T22:53:49.928Z,100.00
2023-04-10T22:56:18.741Z,100.00
2023-04-10T22:58:46.034Z,100.00
2023-04-10T23:01:13.501Z,99.15
2023-04-10T23:03:41.249Z,99.28
2023-04-10T23:06:08.902Z,98.88
2023-04-10T23:08:36.597Z,98.82
2023-04-10T23:11:04.219Z,98.95
2023-04-10T23:13:31.444Z,99.33
2023-04-10T23:15:58.680Z,98.80
2023-04-10T23:18:26.537Z,98.93
2023-04-10T23:20:53.910Z,99.37
2023-04-10T23:23:21.484Z,100.00
2023-04-10T23:25:58.828Z,99.98
2023-04-10T23:28:27.166Z,100.00
2023-04-10T23:30:54.916Z,100.00
2023-04-10T23:33:22.466Z,100.00
2023-04-10T23:35:49.876Z,99.92
2023-04-10T23:38:17.573Z,100.00
2023-04-10T23:40:44.916Z,99.51
2023-04-10T23:43:12.203Z,100.00
2023-04-10T23:45:39.979Z,100.00
2023-04-10T23:48:09.088Z,100.00
2023-04-10T23:50:36.382Z,99.11
2023-04-10T23:53:04.108Z,98.69
2023-04-10T23:55:31.550Z,99.17
2023-04-10T23:57:58.846Z,98.50
